createdAt,value
2019-06-15T00:00:20.987Z,4.93
2019-06-15T00:02:49.386Z,8.40
2019-06-15T00:05:17.796Z,4.60
2019-06-15T00:07:46.214Z,4.47
2019-06-15T00:10:14.705Z,4.97
2019-06-15T00:12:43.209Z,5.00
2019-06-15T00:15:11.934Z,15.93
2019-06-15T00:17:40.350Z,12.20
2019-06-15T00:20:09.122Z,6.10
2019-06-15T00:22:37.523Z,10.50
2019-06-15T00:25:08.996Z,4.80
2019-06-15T00:27:37.413Z,5.20
2019-06-15T00:30:10.885Z,3.90
2019-06-15T00:32:39.384Z,6.00
2019-06-15T00:35:11.233Z,4.07
2019-06-15T00:37:39.660Z,4.43
2019-06-15T00:40:08.713Z,4.40
2019-06-15T00:42:37.144Z,4.10
2019-06-15T00:45:06.383Z,4.50
2019-06-15T00:47:34.798Z,6.90
2019-06-15T00:50:03.383Z,9.23
2019-06-15T00:52:31.799Z,9.60
2019-06-15T00:55:00.216Z,5.63
2019-06-15T00:57:28.632Z,4.50
2019-06-15T00:59:57.040Z,6.73
2019-06-15T01:02:25.566Z,4.67
2019-06-15T01:04:53.985Z,4.90
2019-06-15T01:07:22.408Z,8.00
2019-06-15T01:09:50.817Z,5.10
2019-06-15T01:12:19.239Z,4.47
2019-06-15T01:14:47.651Z,4.77
2019-06-15T01:17:16.073Z,5.90
2019-06-15T01:19:44.497Z,6.97
2019-06-15T01:22:12.918Z,5.27
2019-06-15T01:24:41.338Z,6.00
2019-06-15T01:27:12.558Z,4.50
2019-06-15T01:29:41.039Z,5.37
2019-06-15T01:32:09.493Z,6.07
2019-06-15T01:34:37.922Z,10.83
2019-06-15T01:37:06.365Z,4.07
2019-06-15T01:39:34.775Z,5.27
2019-06-15T01:42:03.358Z,5.87
2019-06-15T01:44:31.768Z,5.90
2019-06-15T01:47:00.203Z,9.97
2019-06-15T01:49:28.614Z,4.97
2019-06-15T01:51:57.035Z,5.27
2019-06-15T01:54:25.454Z,4.90
2019-06-15T01:56:53.876Z,6.90
2019-06-15T01:59:22.280Z,4.00
2019-06-15T02:02:01.203Z,6.57
2019-06-15T02:04:29.621Z,5.77
2019-06-15T02:06:58.199Z,7.20
2019-06-15T02:09:26.664Z,5.10
2019-06-15T02:11:55.308Z,14.43
2019-06-15T02:14:23.716Z,14.13
2019-06-15T02:16:52.186Z,4.63
2019-06-15T02:19:22.114Z,5.17
2019-06-15T02:21:50.520Z,6.77
2019-06-15T02:24:21.779Z,8.50
2019-06-15T02:26:52.303Z,6.00
2019-06-15T02:29:26.264Z,5.33
2019-06-15T02:31:54.694Z,4.57
2019-06-15T02:34:23.112Z,5.03
2019-06-15T02:36:51.523Z,4.90
2019-06-15T02:39:19.975Z,4.80
2019-06-15T02:41:48.962Z,7.57
2019-06-15T02:44:17.711Z,12.20
2019-06-15T02:46:46.496Z,11.43
2019-06-15T02:49:14.915Z,12.00
2019-06-15T02:51:43.345Z,16.87
2019-06-15T02:54:11.780Z,10.90
2019-06-15T02:56:40.199Z,10.40
2019-06-15T02:59:08.643Z,6.60
2019-06-15T03:01:37.051Z,6.67
2019-06-15T03:04:05.663Z,11.30
2019-06-15T03:06:34.440Z,11.10
2019-06-15T03:09:03.218Z,6.90
2019-06-15T03:11:31.673Z,11.87
2019-06-15T03:14:00.457Z,8.40
2019-06-15T03:16:28.885Z,9.83
2019-06-15T03:18:57.395Z,11.83
2019-06-15T03:21:25.837Z,9.23
2019-06-15T03:23:54.286Z,11.73
2019-06-15T03:26:22.694Z,11.00
2019-06-15T03:28:51.123Z,13.83
2019-06-15T03:31:19.540Z,9.03
2019-06-15T03:33:48.011Z,14.30
2019-06-15T03:36:16.422Z,18.27
2019-06-15T03:38:44.853Z,10.07
2019-06-15T03:41:13.272Z,10.27
2019-06-15T03:43:41.735Z,17.57
2019-06-15T03:46:10.139Z,15.83
2019-06-15T03:48:38.581Z,11.33
2019-06-15T03:51:07.053Z,17.70
2019-06-15T03:53:35.503Z,15.83
2019-06-15T03:56:03.951Z,20.23
2019-06-15T03:58:32.405Z,19.00
2019-06-15T04:01:12.399Z,13.23
2019-06-15T04:03:40.830Z,15.70
2019-06-15T04:06:09.272Z,15.50
2019-06-15T04:08:37.691Z,11.90
2019-06-15T04:11:06.115Z,11.53
2019-06-15T04:13:34.529Z,15.80
2019-06-15T04:16:02.967Z,13.53
2019-06-15T04:18:31.410Z,16.03
2019-06-15T04:21:00.095Z,14.60
2019-06-15T04:23:28.511Z,10.67
2019-06-15T04:25:56.957Z,12.20
2019-06-15T04:28:25.376Z,10.27
2019-06-15T04:30:53.801Z,9.20
2019-06-15T04:33:22.219Z,15.23
2019-06-15T04:35:50.703Z,16.80
2019-06-15T04:38:20.692Z,12.40
2019-06-15T04:40:49.112Z,16.63
2019-06-15T04:43:17.579Z,11.90
2019-06-15T04:45:46.025Z,16.27
2019-06-15T04:48:14.510Z,14.30
2019-06-15T04:50:42.953Z,12.43
2019-06-15T04:53:11.397Z,10.40
2019-06-15T04:55:39.865Z,13.70
2019-06-15T04:58:08.313Z,12.50
2019-06-15T05:00:36.768Z,12.73
2019-06-15T05:03:05.280Z,14.97
2019-06-15T05:05:33.912Z,10.77
2019-06-15T05:08:02.394Z,12.20
2019-06-15T05:10:30.825Z,12.07
2019-06-15T05:12:59.249Z,15.17
2019-06-15T05:15:27.723Z,13.57
2019-06-15T05:17:56.195Z,14.80
2019-06-15T05:20:24.659Z,14.47
2019-06-15T05:22:53.174Z,16.23
2019-06-15T05:25:21.604Z,13.30
2019-06-15T05:27:51.829Z,14.53
2019-06-15T05:30:20.371Z,12.30
2019-06-15T05:32:48.841Z,13.10
2019-06-15T05:35:17.455Z,14.27
2019-06-15T05:37:45.940Z,25.80
2019-06-15T05:40:17.873Z,11.80
2019-06-15T05:42:48.091Z,14.20
2019-06-15T05:45:18.447Z,14.10
2019-06-15T05:47:46.878Z,16.90
2019-06-15T05:50:15.687Z,20.93
2019-06-15T05:52:44.121Z,18.10
2019-06-15T05:55:13.114Z,18.50
2019-06-15T05:57:41.576Z,18.53
2019-06-15T06:00:11.941Z,16.80
2019-06-15T06:02:47.178Z,17.60
2019-06-15T06:05:20.969Z,18.33
2019-06-15T06:07:49.291Z,14.43
2019-06-15T06:10:17.862Z,20.93
2019-06-15T06:12:46.295Z,18.73
2019-06-15T06:15:16.070Z,9.73
2019-06-15T06:17:44.517Z,15.90
2019-06-15T06:20:13.176Z,17.03
2019-06-15T06:22:41.606Z,20.13
2019-06-15T06:25:12.668Z,11.30
2019-06-15T06:27:41.144Z,17.80
2019-06-15T06:30:11.139Z,19.27
2019-06-15T06:32:39.627Z,14.03
2019-06-15T06:35:08.819Z,17.73
2019-06-15T06:37:37.258Z,17.07
2019-06-15T06:40:08.922Z,21.30
2019-06-15T06:42:38.122Z,22.73
2019-06-15T06:45:18.358Z,20.93
2019-06-15T06:47:46.829Z,21.13
2019-06-15T06:50:15.796Z,21.70
2019-06-15T06:52:44.258Z,18.23
2019-06-15T06:55:13.726Z,26.73
2019-06-15T06:57:52.367Z,17.30
2019-06-15T07:00:14.033Z,17.13
2019-06-15T07:02:42.462Z,14.60
2019-06-15T07:05:12.251Z,11.57
2019-06-15T07:07:40.672Z,17.50
2019-06-15T07:10:10.135Z,11.50
2019-06-15T07:12:38.583Z,21.83
2019-06-15T07:15:07.612Z,16.10
2019-06-15T07:17:36.281Z,13.33
2019-06-15T07:20:07.082Z,13.00
2019-06-15T07:22:35.509Z,13.17
2019-06-15T07:25:05.998Z,14.13
2019-06-15T07:27:34.455Z,18.80
2019-06-15T07:30:03.941Z,10.83
2019-06-15T07:32:32.357Z,9.73
2019-06-15T07:35:00.789Z,15.50
2019-06-15T07:37:29.234Z,23.73
2019-06-15T07:39:57.642Z,20.40
2019-06-15T07:42:26.101Z,13.37
2019-06-15T07:44:54.576Z,11.33
2019-06-15T07:47:23.030Z,15.50
2019-06-15T07:49:51.489Z,11.80
2019-06-15T07:52:19.890Z,15.03
2019-06-15T07:54:49.910Z,12.80
2019-06-15T07:57:18.351Z,12.00
2019-06-15T07:59:47.061Z,16.77
2019-06-15T08:02:15.530Z,15.63
2019-06-15T08:04:43.936Z,17.10
2019-06-15T08:07:12.437Z,12.30
2019-06-15T08:09:40.880Z,16.20
2019-06-15T08:12:09.336Z,14.27
2019-06-15T08:14:37.767Z,15.27
2019-06-15T08:17:06.285Z,13.80
2019-06-15T08:19:34.687Z,15.53
2019-06-15T08:22:03.188Z,11.97
2019-06-15T08:24:31.679Z,15.40
2019-06-15T08:27:00.099Z,20.50
2019-06-15T08:29:28.557Z,13.90
2019-06-15T08:31:56.990Z,14.43
2019-06-15T08:34:25.428Z,15.10
2019-06-15T08:36:53.892Z,18.53
2019-06-15T08:39:22.323Z,13.90
2019-06-15T08:41:50.744Z,15.87
2019-06-15T08:44:19.178Z,17.17
2019-06-15T08:46:47.608Z,18.27
2019-06-15T08:49:16.030Z,20.43
2019-06-15T08:51:44.452Z,15.60
2019-06-15T08:54:12.907Z,17.80
2019-06-15T08:56:41.332Z,17.23
2019-06-15T08:59:09.805Z,17.00
2019-06-15T09:01:38.219Z,18.47
2019-06-15T09:04:06.652Z,17.40
2019-06-15T09:06:35.069Z,14.43
2019-06-15T09:09:04.144Z,19.57
2019-06-15T09:11:32.593Z,23.83
2019-06-15T09:14:01.289Z,19.53
2019-06-15T09:16:29.725Z,17.83
2019-06-15T09:18:58.178Z,21.60
2019-06-15T09:21:29.629Z,21.27
2019-06-15T09:23:58.031Z,23.57
2019-06-15T09:26:26.456Z,27.70
2019-06-15T09:29:09.998Z,26.40
2019-06-15T09:31:26.830Z,20.83
2019-06-15T09:33:55.248Z,32.83
2019-06-15T09:36:23.680Z,22.67
2019-06-15T09:38:56.643Z,23.43
2019-06-15T09:41:25.066Z,28.17
2019-06-15T09:43:53.488Z,24.23
2019-06-15T09:46:21.954Z,22.63
2019-06-15T09:48:50.364Z,29.90
2019-06-15T09:51:18.786Z,27.43
2019-06-15T09:53:47.204Z,24.67
2019-06-15T09:56:15.627Z,31.93
2019-06-15T09:58:44.056Z,31.73
2019-06-15T10:01:12.488Z,25.10
2019-06-15T10:03:40.916Z,26.73
2019-06-15T10:06:11.770Z,35.00
2019-06-15T10:08:39.712Z,30.20
2019-06-15T10:11:08.192Z,23.60
2019-06-15T10:13:36.600Z,24.67
2019-06-15T10:16:19.130Z,28.53
2019-06-15T10:18:38.635Z,27.43
2019-06-15T10:21:05.658Z,22.63
2019-06-15T10:23:34.065Z,24.37
2019-06-15T10:26:02.480Z,27.60
2019-06-15T10:28:30.942Z,25.27
2019-06-15T10:31:00.827Z,21.67
2019-06-15T10:33:29.486Z,30.10
2019-06-15T10:35:57.868Z,23.53
2019-06-15T10:38:26.307Z,23.53
2019-06-15T10:40:54.728Z,25.37
2019-06-15T10:43:23.183Z,22.73
2019-06-15T10:45:51.591Z,22.03
2019-06-15T10:48:20.108Z,17.30
2019-06-15T10:50:48.611Z,17.33
2019-06-15T10:53:17.221Z,19.03
2019-06-15T10:55:45.674Z,17.00
2019-06-15T10:58:14.098Z,19.23
2019-06-15T11:00:51.080Z,19.60
2019-06-15T11:03:19.434Z,21.20
2019-06-15T11:05:47.873Z,23.20
2019-06-15T11:08:16.338Z,26.83
2019-06-15T11:10:47.809Z,20.60
2019-06-15T11:13:16.438Z,29.00
2019-06-15T11:15:44.869Z,25.50
2019-06-15T11:18:13.369Z,29.97
2019-06-15T11:20:46.729Z,26.37
2019-06-15T11:23:15.190Z,27.93
2019-06-15T11:25:43.651Z,34.20
2019-06-15T11:28:13.018Z,29.07
2019-06-15T11:30:45.941Z,29.00
2019-06-15T11:33:17.282Z,29.00
2019-06-15T11:35:48.849Z,28.57
2019-06-15T11:38:17.312Z,28.70
2019-06-15T11:40:45.915Z,28.03
2019-06-15T11:43:16.983Z,30.40
2019-06-15T11:45:48.331Z,29.87
2019-06-15T11:48:16.827Z,28.27
2019-06-15T11:50:45.209Z,30.60
2019-06-15T11:53:15.310Z,29.90
2019-06-15T11:55:45.251Z,35.53
2019-06-15T11:58:13.688Z,27.47
2019-06-15T12:00:42.383Z,40.23
2019-06-15T12:03:10.846Z,27.00
2019-06-15T12:05:39.279Z,25.37
2019-06-15T12:08:07.713Z,32.70
2019-06-15T12:10:36.150Z,26.43
2019-06-15T12:13:04.598Z,30.27
2019-06-15T12:15:33.016Z,26.63
2019-06-15T12:18:01.457Z,21.63
2019-06-15T12:20:29.908Z,21.43
2019-06-15T12:22:58.420Z,22.93
2019-06-15T12:25:26.861Z,15.33
2019-06-15T12:27:55.486Z,19.40
2019-06-15T12:30:29.721Z,11.27
2019-06-15T12:32:58.305Z,23.23
2019-06-15T12:35:29.916Z,12.53
2019-06-15T12:37:58.386Z,7.97
2019-06-15T12:40:26.888Z,10.70
2019-06-15T12:42:55.291Z,7.07
2019-06-15T12:45:23.888Z,8.53
2019-06-15T12:47:53.076Z,5.33
2019-06-15T12:50:21.562Z,8.80
2019-06-15T12:52:50.007Z,5.03
2019-06-15T12:55:18.512Z,5.20
2019-06-15T12:57:46.944Z,7.30
2019-06-15T13:00:16.117Z,6.00
2019-06-15T13:02:44.517Z,5.73
2019-06-15T13:05:13.250Z,6.50
2019-06-15T13:07:41.720Z,8.00
2019-06-15T13:10:10.443Z,8.00
2019-06-15T13:12:38.872Z,8.63
2019-06-15T13:15:08.756Z,3.37
2019-06-15T13:17:37.165Z,5.27
2019-06-15T13:20:08.508Z,5.50
2019-06-15T13:22:36.943Z,9.40
2019-06-15T13:25:08.664Z,4.83
2019-06-15T13:27:37.073Z,7.60
2019-06-15T13:30:06.851Z,6.73
2019-06-15T13:32:35.261Z,10.13
2019-06-15T13:35:05.567Z,9.90
2019-06-15T13:37:42.159Z,2.57
2019-06-15T13:40:06.388Z,5.10
2019-06-15T13:42:34.831Z,5.17
2019-06-15T13:45:05.017Z,6.73
2019-06-15T13:47:33.419Z,2.93
2019-06-15T13:50:01.926Z,6.60
2019-06-15T13:52:30.306Z,3.00
2019-06-15T13:54:58.781Z,11.27
2019-06-15T13:57:27.197Z,9.20
2019-06-15T13:59:55.638Z,3.53
2019-06-15T14:02:24.059Z,3.17
2019-06-15T14:04:52.485Z,7.20
2019-06-15T14:07:20.908Z,3.23
2019-06-15T14:09:49.328Z,5.20
2019-06-15T14:12:17.751Z,3.03
2019-06-15T14:14:46.179Z,2.63
2019-06-15T14:17:17.381Z,3.63
2019-06-15T14:19:45.794Z,3.13
2019-06-15T14:22:14.222Z,6.70
2019-06-15T14:24:42.648Z,5.00
2019-06-15T14:27:11.061Z,6.50
2019-06-15T14:29:39.503Z,5.40
2019-06-15T14:32:17.323Z,3.83
2019-06-15T14:34:56.144Z,5.17
2019-06-15T14:37:30.682Z,7.20
2019-06-15T14:40:04.850Z,11.33
2019-06-15T14:42:30.945Z,3.57
2019-06-15T14:44:59.400Z,4.20
2019-06-15T14:47:27.855Z,4.90
2019-06-15T14:49:56.264Z,4.70
2019-06-15T14:52:29.367Z,5.50
2019-06-15T14:54:57.951Z,4.80
2019-06-15T14:57:27.049Z,8.17
2019-06-15T15:00:04.428Z,4.33
2019-06-15T15:02:26.382Z,4.60
2019-06-15T15:04:56.537Z,6.40
2019-06-15T15:07:26.357Z,6.73
2019-06-15T15:09:56.681Z,8.03
2019-06-15T15:12:26.559Z,9.03
2019-06-15T15:14:56.530Z,5.63
2019-06-15T15:17:26.967Z,7.90
2019-06-15T15:19:57.414Z,4.20
2019-06-15T15:22:26.744Z,2.73
2019-06-15T15:24:56.170Z,3.37
2019-06-15T15:27:27.066Z,5.40
2019-06-15T15:29:56.988Z,8.13
2019-06-15T15:32:30.518Z,6.27
2019-06-15T15:34:56.017Z,5.50
2019-06-15T15:37:26.882Z,12.53
2019-06-15T15:39:56.516Z,5.17
2019-06-15T15:42:26.758Z,9.30
2019-06-15T15:44:56.585Z,5.03
2019-06-15T15:47:27.245Z,3.40
2019-06-15T15:49:57.603Z,8.13
2019-06-15T15:52:26.923Z,3.30
2019-06-15T15:54:56.536Z,2.90
2019-06-15T15:57:26.518Z,7.00
2019-06-15T15:59:56.344Z,6.93
2019-06-15T16:02:35.696Z,4.47
2019-06-15T16:04:57.874Z,5.20
2019-06-15T16:07:27.799Z,1.43
2019-06-15T16:09:56.501Z,3.60
2019-06-15T16:12:25.007Z,4.70
2019-06-15T16:14:53.483Z,3.63
2019-06-15T16:17:21.908Z,1.10
2019-06-15T16:19:50.329Z,1.57
2019-06-15T16:22:18.797Z,2.10
2019-06-15T16:24:48.084Z,5.80
2019-06-15T16:27:21.906Z,3.07
2019-06-15T16:29:51.854Z,0.90
2019-06-15T16:32:21.937Z,2.67
2019-06-15T16:34:50.373Z,2.20
2019-06-15T16:37:18.851Z,4.17
2019-06-15T16:39:47.291Z,2.00
2019-06-15T16:42:15.733Z,0.90
2019-06-15T16:44:46.796Z,1.23
2019-06-15T16:47:16.686Z,0.83
2019-06-15T16:49:46.482Z,1.23
2019-06-15T16:52:27.050Z,1.50
2019-06-15T16:54:55.486Z,0.70
2019-06-15T16:57:23.902Z,4.43
2019-06-15T16:59:52.321Z,0.90
2019-06-15T17:02:20.772Z,2.50
2019-06-15T17:04:49.199Z,0.60
2019-06-15T17:07:17.619Z,0.70
2019-06-15T17:09:46.592Z,7.07
2019-06-15T17:12:16.852Z,4.63
2019-06-15T17:14:45.172Z,5.30
2019-06-15T17:17:13.604Z,0.63
2019-06-15T17:19:42.044Z,5.00
2019-06-15T17:22:18.605Z,0.80
2019-06-15T17:24:50.095Z,1.60
2019-06-15T17:27:19.967Z,1.47
2019-06-15T17:29:46.920Z,0.57
2019-06-15T17:32:17.034Z,0.83
2019-06-15T17:34:46.927Z,0.60
2019-06-15T17:37:17.275Z,0.50
2019-06-15T17:39:46.634Z,1.03
2019-06-15T17:42:16.383Z,0.70
2019-06-15T17:44:46.200Z,0.60
2019-06-15T17:47:16.897Z,0.60
2019-06-15T17:49:46.856Z,2.93
2019-06-15T17:52:16.872Z,0.93
2019-06-15T17:54:46.666Z,0.70
2019-06-15T17:57:15.241Z,2.73
2019-06-15T17:59:43.678Z,0.83
2019-06-15T18:02:12.076Z,0.60
2019-06-15T18:04:42.940Z,0.77
2019-06-15T18:07:16.786Z,0.57
2019-06-15T18:09:46.608Z,0.93
2019-06-15T18:12:16.309Z,2.93
2019-06-15T18:14:46.502Z,3.53
2019-06-15T18:17:17.190Z,1.30
2019-06-15T18:19:46.956Z,2.10
2019-06-15T18:22:17.054Z,0.80
2019-06-15T18:24:46.659Z,2.93
2019-06-15T18:27:16.910Z,3.80
2019-06-15T18:29:46.460Z,1.40
2019-06-15T18:32:17.091Z,2.70
2019-06-15T18:34:46.491Z,0.97
2019-06-15T18:37:17.113Z,3.13
2019-06-15T18:39:46.754Z,0.83
2019-06-15T18:42:16.932Z,1.93
2019-06-15T18:44:47.942Z,2.90
2019-06-15T18:47:16.875Z,1.10
2019-06-15T18:49:47.394Z,2.53
2019-06-15T18:52:20.006Z,3.07
2019-06-15T18:54:50.041Z,1.00
2019-06-15T18:57:21.314Z,1.17
2019-06-15T18:59:49.815Z,2.43
2019-06-15T19:02:22.558Z,2.60
2019-06-15T19:04:52.882Z,4.17
2019-06-15T19:07:26.989Z,1.20
2019-06-15T19:09:56.040Z,0.90
2019-06-15T19:12:26.378Z,0.83
2019-06-15T19:14:56.172Z,9.33
2019-06-15T19:17:24.641Z,1.27
2019-06-15T19:19:57.213Z,2.87
2019-06-15T19:22:27.116Z,1.53
2019-06-15T19:24:57.092Z,1.30
2019-06-15T19:27:26.008Z,1.90
2019-06-15T19:29:56.504Z,1.10
2019-06-15T19:32:26.309Z,1.20
2019-06-15T19:34:56.889Z,2.53
2019-06-15T19:37:27.247Z,2.43
2019-06-15T19:39:58.361Z,0.90
2019-06-15T19:42:26.824Z,1.00
2019-06-15T19:44:56.236Z,1.43
2019-06-15T19:47:26.517Z,1.43
2019-06-15T19:49:56.839Z,0.90
2019-06-15T19:52:25.358Z,2.30
2019-06-15T19:55:01.235Z,2.10
2019-06-15T19:57:29.658Z,1.90
2019-06-15T19:59:58.229Z,1.67
2019-06-15T20:02:27.080Z,1.37
2019-06-15T20:05:11.049Z,3.90
2019-06-15T20:07:42.774Z,3.53
2019-06-15T20:10:11.888Z,4.00
2019-06-15T20:12:48.777Z,2.83
2019-06-15T20:15:26.807Z,4.10
2019-06-15T20:17:56.956Z,1.37
2019-06-15T20:20:26.690Z,3.27
2019-06-15T20:22:56.108Z,1.20
2019-06-15T20:25:26.698Z,2.30
2019-06-15T20:27:56.358Z,1.17
2019-06-15T20:30:24.933Z,3.43
2019-06-15T20:32:53.435Z,2.07
2019-06-15T20:35:21.841Z,1.27
2019-06-15T20:37:59.340Z,1.70
2019-06-15T20:40:27.746Z,1.17
2019-06-15T20:42:56.617Z,1.00
2019-06-15T20:45:26.809Z,1.60
2019-06-15T20:48:01.186Z,1.47
2019-06-15T20:50:29.596Z,3.17
2019-06-15T20:52:59.724Z,5.17
2019-06-15T20:55:28.122Z,1.50
2019-06-15T20:57:57.031Z,2.50
2019-06-15T21:00:26.342Z,1.50
2019-06-15T21:02:56.277Z,3.03
2019-06-15T21:05:38.957Z,3.13
2019-06-15T21:08:02.526Z,1.67
2019-06-15T21:10:30.903Z,1.30
2019-06-15T21:12:59.591Z,1.50
2019-06-15T21:15:31.093Z,1.10
2019-06-15T21:18:01.349Z,3.00
2019-06-15T21:20:29.791Z,1.90
2019-06-15T21:22:58.216Z,8.13
2019-06-15T21:25:26.658Z,1.70
2019-06-15T21:27:56.740Z,3.73
2019-06-15T21:30:27.078Z,4.57
2019-06-15T21:32:57.784Z,1.30
2019-06-15T21:35:26.711Z,3.63
2019-06-15T21:37:57.232Z,5.40
2019-06-15T21:40:27.543Z,1.70
2019-06-15T21:42:57.663Z,3.13
2019-06-15T21:45:27.742Z,2.30
2019-06-15T21:48:01.916Z,1.40
2019-06-15T21:50:30.315Z,2.00
2019-06-15T21:52:59.646Z,2.43
2019-06-15T21:55:28.070Z,1.97
2019-06-15T21:57:59.283Z,2.13
2019-06-15T22:00:48.631Z,2.50
2019-06-15T22:03:17.151Z,3.07
2019-06-15T22:06:02.724Z,1.60
2019-06-15T22:08:21.375Z,1.40
2019-06-15T22:10:49.797Z,1.90
2019-06-15T22:13:18.230Z,2.40
2019-06-15T22:15:46.823Z,1.50
2019-06-15T22:18:16.367Z,1.70
2019-06-15T22:20:47.133Z,2.03
2019-06-15T22:23:16.249Z,4.67
2019-06-15T22:25:46.489Z,2.40
2019-06-15T22:28:16.491Z,1.90
2019-06-15T22:30:46.154Z,1.57
2019-06-15T22:33:16.477Z,2.30
2019-06-15T22:35:47.283Z,3.50
2019-06-15T22:38:15.203Z,1.93
2019-06-15T22:40:43.639Z,2.53
2019-06-15T22:43:12.067Z,1.67
2019-06-15T22:45:40.505Z,4.60
2019-06-15T22:48:08.985Z,6.00
2019-06-15T22:50:37.412Z,7.03
2019-06-15T22:53:07.274Z,2.50
2019-06-15T22:55:36.958Z,4.10
2019-06-15T22:58:06.509Z,3.77
2019-06-15T23:00:37.407Z,2.30
2019-06-15T23:03:06.283Z,4.70
2019-06-15T23:05:35.085Z,1.77
2019-06-15T23:08:03.519Z,2.77
2019-06-15T23:10:31.959Z,4.50
2019-06-15T23:13:00.369Z,2.77
2019-06-15T23:15:28.810Z,3.90
2019-06-15T23:17:57.348Z,3.77
2019-06-15T23:20:26.977Z,3.70
2019-06-15T23:22:56.082Z,3.30
2019-06-15T23:25:27.252Z,3.60
2019-06-15T23:27:56.334Z,2.53
2019-06-15T23:30:24.818Z,5.73
2019-06-15T23:32:56.038Z,3.90
2019-06-15T23:35:26.165Z,2.60
2019-06-15T23:37:55.933Z,2.53
2019-06-15T23:40:26.919Z,3.00
2019-06-15T23:42:56.588Z,2.27
2019-06-15T23:45:26.784Z,3.03
2019-06-15T23:47:57.486Z,2.23
2019-06-15T23:50:26.357Z,2.40
2019-06-15T23:52:55.001Z,5.83
2019-06-15T23:55:23.412Z,2.93
2019-06-15T23:57:51.834Z,2.20
